Time;durP1;ratioP1;P1;durP2;ratioP2;P2;SDS_P1;SDS_P2;PMS_P1;PMS_P2;Temp;Humidity;BMP_temperature;BMP_pressure;BME280_temperature;BME280_humidity;BME280_pressure;Samples;Min_cycle;Max_cycle;Signal;HPM_P1;HPM_P2
2021/03/25 00:00:20;;;;;;;;;;;18.10;42.20;;;;;;5046882;28;19916;-70
2021/03/25 00:02:46;;;;;;;;;;;18.00;41.90;;;;;;5053880;28;20263;-71
2021/03/25 00:05:12;;;;;;;;;;;17.80;42.30;;;;;;5056369;28;20454;-71
2021/03/25 00:07:39;;;;;;;;;;;17.80;43.60;;;;;;5055501;28;19908;-71
2021/03/25 00:10:07;;;;;;;;;;;17.70;43.20;;;;;;5051513;28;19909;-71
2021/03/25 00:12:33;;;;;;;;;;;17.70;43.90;;;;;;5037397;28;19919;-71
2021/03/25 00:14:59;;;;;;;;;;;17.70;44.10;;;;;;5054985;28;19904;-71
2021/03/25 00:17:25;;;;;;;;;;;17.80;44.30;;;;;;5055564;28;20345;-71
2021/03/25 00:19:51;;;;;;;;;;;17.70;43.80;;;;;;5055540;28;19908;-72
2021/03/25 00:22:17;;;;;;;;;;;17.80;44.20;;;;;;5038059;28;20008;-71
2021/03/25 00:24:43;;;;;;;;;;;17.80;43.70;;;;;;5052812;28;19920;-71
2021/03/25 00:27:09;;;;;;;;;;;17.70;43.40;;;;;;5053211;28;19916;-71
2021/03/25 00:29:35;;;;;;;;;;;17.60;44.40;;;;;;5039489;28;20023;-73
2021/03/25 00:32:01;;;;;;;;;;;17.50;44.60;;;;;;5058514;28;19909;-72
2021/03/25 00:34:27;;;;;;;;;;;17.40;45.80;;;;;;5057231;28;19983;-71
2021/03/25 00:36:54;;;;;;;;;;;17.10;46.70;;;;;;5055359;28;20582;-71
2021/03/25 00:39:20;;;;;;;;;;;17.00;47.50;;;;;;5038497;28;19916;-72
2021/03/25 00:41:46;;;;;;;;;;;16.70;48.60;;;;;;5054147;28;19909;-71
2021/03/25 00:44:13;;;;;;;;;;;16.60;49.90;;;;;;5038123;28;20257;-73
2021/03/25 00:46:39;;;;;;;;;;;16.40;50.30;;;;;;5056442;28;19916;-72
2021/03/25 00:49:05;;;;;;;;;;;16.20;51.00;;;;;;5055239;28;19996;-72
2021/03/25 00:51:32;;;;;;;;;;;16.10;51.30;;;;;;5059401;28;20298;-72
2021/03/25 00:53:58;;;;;;;;;;;15.90;48.50;;;;;;5054109;28;19916;-72
2021/03/25 00:56:24;;;;;;;;;;;16.00;50.70;;;;;;5053625;28;19908;-73
2021/03/25 00:58:50;;;;;;;;;;;16.00;51.50;;;;;;5047463;28;19943;-72
2021/03/25 01:01:16;;;;;;;;;;;16.00;52.00;;;;;;5054643;28;19982;-71
2021/03/25 01:03:42;;;;;;;;;;;16.00;52.00;;;;;;5053423;28;19924;-71
2021/03/25 01:06:09;;;;;;;;;;;16.00;52.00;;;;;;5056265;28;19908;-71
2021/03/25 01:08:35;;;;;;;;;;;15.90;52.70;;;;;;5056493;28;19905;-72
2021/03/25 01:11:12;;;;;;;;;;;15.70;52.60;;;;;;5056099;28;20285;-70
2021/03/25 01:13:40;;;;;;;;;;;15.70;53.40;;;;;;5056227;28;19905;-71
2021/03/25 01:16:08;;;;;;;;;;;15.50;53.40;;;;;;5056477;28;19919;-72
2021/03/25 01:18:34;;;;;;;;;;;15.30;55.10;;;;;;5056650;28;20356;-71
2021/03/25 01:21:00;;;;;;;;;;;15.30;55.00;;;;;;5056247;28;20331;-71
2021/03/25 01:23:26;;;;;;;;;;;15.10;55.00;;;;;;5032584;28;20066;-71
2021/03/25 01:25:52;;;;;;;;;;;14.90;56.00;;;;;;5053126;28;20228;-71
2021/03/25 01:28:18;;;;;;;;;;;14.90;56.20;;;;;;5054768;28;19995;-71
2021/03/25 01:30:44;;;;;;;;;;;14.90;56.00;;;;;;5054555;28;19904;-73
2021/03/25 01:33:12;;;;;;;;;;;14.80;56.00;;;;;;5052711;28;19931;-72
2021/03/25 01:35:39;;;;;;;;;;;14.90;56.00;;;;;;5054116;28;19912;-72
2021/03/25 01:38:06;;;;;;;;;;;14.80;56.50;;;;;;5045424;28;20441;-73
2021/03/25 01:40:35;;;;;;;;;;;14.80;56.50;;;;;;5054537;28;19916;-70
2021/03/25 01:43:07;;;;;;;;;;;14.80;55.80;;;;;;5052711;28;19935;-71
2021/03/25 01:45:35;;;;;;;;;;;14.80;54.70;;;;;;5055781;28;19912;-71
2021/03/25 01:48:01;;;;;;;;;;;14.80;53.70;;;;;;5055526;28;19947;-71
2021/03/25 01:50:27;;;;;;;;;;;14.90;54.50;;;;;;5038560;28;20274;-70
2021/03/25 01:52:58;;;;;;;;;;;14.90;53.80;;;;;;5054550;28;20346;-72
2021/03/25 01:55:42;;;;;;;;;;;14.90;52.70;;;;;;5053806;28;19966;-71
2021/03/25 01:58:18;;;;;;;;;;;15.00;53.60;;;;;;5054256;28;19917;-72
2021/03/25 02:00:44;;;;;;;;;;;14.90;53.00;;;;;;5055683;28;20288;-73
2021/03/25 02:03:28;;;;;;;;;;;14.90;52.60;;;;;;5055386;28;20238;-72
2021/03/25 02:06:13;;;;;;;;;;;14.90;52.60;;;;;;5053496;28;19909;-71
2021/03/25 02:08:57;;;;;;;;;;;14.90;52.60;;;;;;5054704;28;19924;-72
2021/03/25 02:11:24;;;;;;;;;;;14.80;53.60;;;;;;5053218;28;20342;-72
2021/03/25 02:13:55;;;;;;;;;;;14.80;53.30;;;;;;5055782;28;19905;-72
2021/03/25 02:16:23;;;;;;;;;;;14.80;53.00;;;;;;5055672;28;19909;-72
2021/03/25 02:19:07;;;;;;;;;;;14.70;53.00;;;;;;5053916;28;19940;-72
2021/03/25 02:21:46;;;;;;;;;;;14.70;52.70;;;;;;5055238;28;19995;-73
2021/03/25 02:24:18;;;;;;;;;;;14.70;53.00;;;;;;5038321;28;20054;-73
2021/03/25 02:26:47;;;;;;;;;;;14.70;53.30;;;;;;5054123;28;19978;-71
2021/03/25 02:29:13;;;;;;;;;;;14.70;52.00;;;;;;5051758;28;19918;-71
2021/03/25 02:31:40;;;;;;;;;;;14.70;52.70;;;;;;5054042;28;19912;-71
2021/03/25 02:34:08;;;;;;;;;;;14.70;53.40;;;;;;5052432;28;19913;-70
2021/03/25 02:36:41;;;;;;;;;;;14.50;52.00;;;;;;5053174;28;20241;-71
2021/03/25 02:39:09;;;;;;;;;;;14.60;52.20;;;;;;5050903;28;20330;-71
2021/03/25 02:41:37;;;;;;;;;;;14.60;52.50;;;;;;5048627;28;19943;-71
2021/03/25 02:44:07;;;;;;;;;;;14.50;52.40;;;;;;5050329;28;20357;-72
2021/03/25 02:46:36;;;;;;;;;;;14.50;52.90;;;;;;5050490;28;20335;-72
2021/03/25 02:49:05;;;;;;;;;;;14.30;52.60;;;;;;5050121;28;19909;-71
2021/03/25 02:51:39;;;;;;;;;;;14.30;52.50;;;;;;5052016;28;20258;-72
2021/03/25 02:54:06;;;;;;;;;;;14.20;53.50;;;;;;5036478;28;19982;-72
2021/03/25 02:56:55;;;;;;;;;;;14.10;52.80;;;;;;5053306;28;19909;-71
2021/03/25 02:59:29;;;;;;;;;;;14.00;52.70;;;;;;5044240;28;19995;-72
2021/03/25 03:02:01;;;;;;;;;;;13.90;53.50;;;;;;5055202;28;20384;-71
2021/03/25 03:04:33;;;;;;;;;;;14.20;52.40;;;;;;5055902;28;20250;-72
2021/03/25 03:07:11;;;;;;;;;;;14.00;54.00;;;;;;5057666;28;19908;-72
2021/03/25 03:09:38;;;;;;;;;;;14.10;51.90;;;;;;5055550;28;19959;-71
2021/03/25 03:12:09;;;;;;;;;;;14.10;51.30;;;;;;5056631;28;19912;-72
2021/03/25 03:14:44;;;;;;;;;;;14.20;52.70;;;;;;5058771;28;20007;-72
2021/03/25 03:17:20;;;;;;;;;;;13.90;53.70;;;;;;5047861;28;19979;-71
2021/03/25 03:20:01;;;;;;;;;;;14.00;52.80;;;;;;5055397;28;19908;-70
2021/03/25 03:22:27;;;;;;;;;;;13.90;52.80;;;;;;5055953;28;20326;-71
2021/03/25 03:24:53;;;;;;;;;;;13.90;52.50;;;;;;5054052;28;20479;-71
2021/03/25 03:27:25;;;;;;;;;;;14.10;51.50;;;;;;5056689;28;19919;-70
2021/03/25 03:29:53;;;;;;;;;;;14.20;51.10;;;;;;5058417;28;19909;-71
2021/03/25 03:32:40;;;;;;;;;;;14.00;51.80;;;;;;5058715;28;19913;-71
2021/03/25 03:35:13;;;;;;;;;;;13.70;53.10;;;;;;5058803;28;19917;-72
2021/03/25 03:37:44;;;;;;;;;;;13.90;52.90;;;;;;5058386;28;20003;-71
2021/03/25 03:40:18;;;;;;;;;;;13.90;53.10;;;;;;5053405;28;19913;-71
2021/03/25 03:42:45;;;;;;;;;;;13.90;51.40;;;;;;5058458;28;19922;-71
2021/03/25 03:45:13;;;;;;;;;;;13.90;52.80;;;;;;5057889;28;19912;-70
2021/03/25 03:47:40;;;;;;;;;;;13.70;51.70;;;;;;5058181;28;19905;-70
2021/03/25 03:50:06;;;;;;;;;;;13.90;50.90;;;;;;5058142;28;19916;-70
2021/03/25 03:52:37;;;;;;;;;;;13.80;50.90;;;;;;5058092;28;19919;-70
2021/03/25 03:55:05;;;;;;;;;;;13.80;50.70;;;;;;5045414;28;19995;-71
2021/03/25 03:57:36;;;;;;;;;;;13.80;52.20;;;;;;5055530;28;19948;-71
2021/03/25 04:00:10;;;;;;;;;;;13.90;50.90;;;;;;5033894;28;19939;-71
2021/03/25 04:02:42;;;;;;;;;;;14.00;55.90;;;;;;5056224;28;19909;-72
2021/03/25 04:05:11;;;;;;;;;;;14.40;54.20;;;;;;5054005;28;19917;-71
2021/03/25 04:07:39;;;;;;;;;;;14.10;54.10;;;;;;5038955;28;20237;-72
2021/03/25 04:10:09;;;;;;;;;;;13.90;52.70;;;;;;5057424;28;19909;-70
2021/03/25 04:12:37;;;;;;;;;;;14.00;56.50;;;;;;5058787;28;19909;-71
2021/03/25 04:15:14;;;;;;;;;;;14.30;56.10;;;;;;5056220;28;19974;-72
2021/03/25 04:17:43;;;;;;;;;;;14.30;55.90;;;;;;5059224;28;20249;-70
2021/03/25 04:20:11;;;;;;;;;;;14.20;56.40;;;;;;5055946;28;19923;-71
2021/03/25 04:22:40;;;;;;;;;;;14.10;55.90;;;;;;5056735;28;20381;-72
2021/03/25 04:25:06;;;;;;;;;;;14.00;56.90;;;;;;5056595;28;20287;-70
2021/03/25 04:27:35;;;;;;;;;;;14.10;57.00;;;;;;5057060;28;19970;-70
2021/03/25 04:30:07;;;;;;;;;;;14.20;57.20;;;;;;5057946;28;20008;-71
2021/03/25 04:32:34;;;;;;;;;;;14.20;57.50;;;;;;5056509;28;19920;-70
2021/03/25 04:35:00;;;;;;;;;;;14.10;57.20;;;;;;5037457;28;19999;-71
2021/03/25 04:37:30;;;;;;;;;;;14.10;56.60;;;;;;5058129;28;19920;-70
2021/03/25 04:39:57;;;;;;;;;;;14.00;56.40;;;;;;5056889;28;20365;-70
2021/03/25 04:42:23;;;;;;;;;;;14.00;57.80;;;;;;5056214;28;19924;-69
2021/03/25 04:44:51;;;;;;;;;;;14.20;56.90;;;;;;5056033;28;19917;-70
2021/03/25 04:47:20;;;;;;;;;;;14.10;57.30;;;;;;5055094;28;19919;-70
2021/03/25 04:49:49;;;;;;;;;;;14.20;58.20;;;;;;5054534;28;20007;-70
2021/03/25 04:52:25;;;;;;;;;;;14.10;57.90;;;;;;5037869;28;19912;-70
2021/03/25 04:54:52;;;;;;;;;;;14.00;57.90;;;;;;5054716;28;19908;-70
2021/03/25 04:57:32;;;;;;;;;;;14.00;57.00;;;;;;5056886;28;19948;-70
2021/03/25 05:00:00;;;;;;;;;;;14.20;58.70;;;;;;5056717;28;19927;-70
2021/03/25 05:02:27;;;;;;;;;;;14.10;58.10;;;;;;5056103;28;19913;-71
2021/03/25 05:04:55;;;;;;;;;;;14.10;58.50;;;;;;5054639;28;19916;-73
2021/03/25 05:07:28;;;;;;;;;;;14.00;57.90;;;;;;5038684;28;19986;-70
2021/03/25 05:09:55;;;;;;;;;;;14.10;58.70;;;;;;5056285;28;19909;-71
2021/03/25 05:12:22;;;;;;;;;;;14.10;58.90;;;;;;5047408;28;20325;-71
2021/03/25 05:14:49;;;;;;;;;;;14.00;57.90;;;;;;5055709;28;19905;-71
2021/03/25 05:17:33;;;;;;;;;;;14.00;59.60;;;;;;5055272;28;19987;-69
2021/03/25 05:20:02;;;;;;;;;;;14.10;59.10;;;;;;5054968;28;20257;-70
2021/03/25 05:22:36;;;;;;;;;;;14.00;59.60;;;;;;5054550;28;19908;-71
2021/03/25 05:25:05;;;;;;;;;;;14.00;59.80;;;;;;5053800;28;19917;-72
2021/03/25 05:27:52;;;;;;;;;;;13.90;59.90;;;;;;5056530;28;19923;-71
2021/03/25 05:30:19;;;;;;;;;;;13.80;60.00;;;;;;5054636;28;19915;-71
2021/03/25 05:32:47;;;;;;;;;;;13.70;60.00;;;;;;5055619;28;19909;-71
2021/03/25 05:35:16;;;;;;;;;;;13.60;59.70;;;;;;5055489;28;19909;-71
2021/03/25 05:37:44;;;;;;;;;;;13.60;59.60;;;;;;5054873;28;19923;-72
2021/03/25 05:40:16;;;;;;;;;;;13.80;60.10;;;;;;5056026;28;19954;-71
2021/03/25 05:42:54;;;;;;;;;;;13.70;59.00;;;;;;5054474;28;20026;-71
2021/03/25 05:45:22;;;;;;;;;;;13.60;60.70;;;;;;5056524;28;20250;-71
2021/03/25 05:48:07;;;;;;;;;;;13.50;59.60;;;;;;5052803;28;19909;-72
2021/03/25 05:50:37;;;;;;;;;;;13.50;60.90;;;;;;5046060;28;19912;-71
2021/03/25 05:53:13;;;;;;;;;;;13.50;60.20;;;;;;5053777;28;19985;-71
2021/03/25 05:55:39;;;;;;;;;;;13.60;60.30;;;;;;5054594;28;19912;-71
2021/03/25 05:58:05;;;;;;;;;;;13.40;59.10;;;;;;5029720;28;19905;-71
2021/03/25 06:00:31;;;;;;;;;;;13.60;60.00;;;;;;5053420;28;19909;-71
2021/03/25 06:03:01;;;;;;;;;;;13.60;60.70;;;;;;5054224;28;19919;-71
2021/03/25 06:05:27;;;;;;;;;;;13.50;59.50;;;;;;5052566;28;20002;-72
2021/03/25 06:08:20;;;;;;;;;;;13.50;60.90;;;;;;5038077;28;20269;-72
2021/03/25 06:11:07;;;;;;;;;;;13.50;60.10;;;;;;5028824;28;19909;-76
2021/03/25 06:13:45;;;;;;;;;;;13.30;59.30;;;;;;5052647;28;19924;-71
2021/03/25 06:16:19;;;;;;;;;;;13.30;60.70;;;;;;5054930;28;19974;-71
2021/03/25 06:18:54;;;;;;;;;;;13.50;60.40;;;;;;5054501;28;19908;-71
2021/03/25 06:21:31;;;;;;;;;;;13.40;60.40;;;;;;5055301;28;20318;-71
2021/03/25 06:24:16;;;;;;;;;;;13.40;60.00;;;;;;5036090;28;20227;-72
2021/03/25 06:26:48;;;;;;;;;;;13.50;59.40;;;;;;5053533;28;19948;-71
2021/03/25 06:29:26;;;;;;;;;;;13.20;59.30;;;;;;5054918;28;19908;-71
2021/03/25 06:32:11;;;;;;;;;;;13.30;59.50;;;;;;5052750;28;20396;-71
2021/03/25 06:34:56;;;;;;;;;;;13.30;58.90;;;;;;5037009;28;19908;-72
2021/03/25 06:37:27;;;;;;;;;;;13.50;59.30;;;;;;5053277;28;19913;-71
2021/03/25 06:39:55;;;;;;;;;;;13.30;58.70;;;;;;5038667;28;20000;-71
2021/03/25 06:42:43;;;;;;;;;;;13.50;59.30;;;;;;5058138;28;19969;-71
2021/03/25 06:45:30;;;;;;;;;;;13.50;58.70;;;;;;5058585;28;19968;-72
2021/03/25 06:48:04;;;;;;;;;;;13.50;60.90;;;;;;5058174;28;20342;-72
2021/03/25 06:50:33;;;;;;;;;;;13.60;59.60;;;;;;5057160;28;19913;-71
2021/03/25 06:53:13;;;;;;;;;;;13.40;60.40;;;;;;5057932;28;19912;-71
2021/03/25 06:55:39;;;;;;;;;;;13.50;59.20;;;;;;5057798;28;19975;-71
2021/03/25 06:58:08;;;;;;;;;;;13.50;59.20;;;;;;5056428;28;20262;-71
2021/03/25 07:00:39;;;;;;;;;;;13.40;59.10;;;;;;5054755;28;19994;-71
2021/03/25 07:03:07;;;;;;;;;;;13.30;58.60;;;;;;5056674;28;19916;-71
2021/03/25 07:05:34;;;;;;;;;;;13.30;60.20;;;;;;5053912;28;19927;-71
2021/03/25 07:08:21;;;;;;;;;;;13.50;59.70;;;;;;5040275;28;20007;-71
2021/03/25 07:10:49;;;;;;;;;;;13.60;59.10;;;;;;5053267;28;19992;-71
2021/03/25 07:13:17;;;;;;;;;;;13.40;59.40;;;;;;5055291;28;20285;-71
2021/03/25 07:15:43;;;;;;;;;;;13.50;59.40;;;;;;5038335;28;19986;-71
2021/03/25 07:18:32;;;;;;;;;;;13.50;58.70;;;;;;5057605;28;19920;-71
2021/03/25 07:21:17;;;;;;;;;;;13.50;59.70;;;;;;5034827;28;19908;-71
2021/03/25 07:23:43;;;;;;;;;;;13.50;59.20;;;;;;5057901;28;19912;-71
2021/03/25 07:26:18;;;;;;;;;;;13.50;58.60;;;;;;5054566;28;19944;-71
2021/03/25 07:28:56;;;;;;;;;;;13.40;58.90;;;;;;5057671;28;19943;-71
2021/03/25 07:31:33;;;;;;;;;;;13.40;58.80;;;;;;5056435;28;20261;-71
2021/03/25 07:34:00;;;;;;;;;;;13.50;59.00;;;;;;5056002;28;20003;-71
2021/03/25 07:36:26;;;;;;;;;;;13.40;58.80;;;;;;5038305;28;19959;-71
2021/03/25 07:38:59;;;;;;;;;;;13.60;58.20;;;;;;5057183;28;19909;-70
2021/03/25 07:41:30;;;;;;;;;;;13.60;57.10;;;;;;5055942;28;19909;-71
2021/03/25 07:44:06;;;;;;;;;;;13.50;57.60;;;;;;5057088;28;19912;-72
2021/03/25 07:46:35;;;;;;;;;;;13.50;57.90;;;;;;5056834;28;19909;-72
2021/03/25 07:49:01;;;;;;;;;;;13.60;57.90;;;;;;5054396;28;19919;-71
2021/03/25 07:51:27;;;;;;;;;;;13.70;58.10;;;;;;5057627;28;19923;-75
2021/03/25 07:54:14;;;;;;;;;;;13.80;56.90;;;;;;5058131;28;19924;-72
2021/03/25 07:56:52;;;;;;;;;;;13.60;57.20;;;;;;5057355;28;19916;-71
2021/03/25 07:59:27;;;;;;;;;;;13.70;57.20;;;;;;5056094;28;20279;-71
2021/03/25 08:01:53;;;;;;;;;;;13.70;56.60;;;;;;5054915;28;19916;-71
2021/03/25 08:04:30;;;;;;;;;;;13.90;56.30;;;;;;5056275;28;20003;-71
2021/03/25 08:07:02;;;;;;;;;;;14.00;56.50;;;;;;5038473;28;19913;-70
2021/03/25 08:09:28;;;;;;;;;;;13.90;57.00;;;;;;5056731;28;20243;-71
2021/03/25 08:11:58;;;;;;;;;;;13.90;56.90;;;;;;5055647;28;20375;-71
2021/03/25 08:14:26;;;;;;;;;;;13.90;56.80;;;;;;5055008;28;20361;-72
2021/03/25 08:17:20;;;;;;;;;;;13.80;57.20;;;;;;5057226;28;20314;-71
2021/03/25 08:19:52;;;;;;;;;;;13.90;56.70;;;;;;5055644;28;19909;-71
2021/03/25 08:22:36;;;;;;;;;;;13.80;57.50;;;;;;5056429;28;19908;-71
2021/03/25 08:25:19;;;;;;;;;;;13.90;56.50;;;;;;5054682;28;19912;-71
2021/03/25 08:27:57;;;;;;;;;;;13.80;57.50;;;;;;5055558;28;19916;-71
2021/03/25 08:30:28;;;;;;;;;;;13.80;57.40;;;;;;5055253;28;19943;-72
2021/03/25 08:33:13;;;;;;;;;;;13.80;56.60;;;;;;5056006;28;19915;-72
2021/03/25 08:35:47;;;;;;;;;;;13.90;57.30;;;;;;5052976;28;19921;-71
2021/03/25 08:38:32;;;;;;;;;;;13.80;56.90;;;;;;5054801;28;20310;-72
2021/03/25 08:40:59;;;;;;;;;;;13.70;57.30;;;;;;5054540;28;19909;-71
2021/03/25 08:43:28;;;;;;;;;;;13.70;58.30;;;;;;5055561;28;19917;-72
2021/03/25 08:45:58;;;;;;;;;;;13.80;58.30;;;;;;5054488;28;19995;-72
2021/03/25 08:48:32;;;;;;;;;;;13.80;57.10;;;;;;5047186;28;19916;-72
2021/03/25 08:51:03;;;;;;;;;;;13.70;57.80;;;;;;5055135;28;19920;-71
2021/03/25 08:53:35;;;;;;;;;;;13.60;58.80;;;;;;5050800;28;19908;-71
2021/03/25 08:56:04;;;;;;;;;;;13.80;58.20;;;;;;5051958;28;19920;-71
2021/03/25 08:58:32;;;;;;;;;;;13.60;57.90;;;;;;5054869;28;19915;-71
2021/03/25 09:01:01;;;;;;;;;;;13.60;59.60;;;;;;5037105;28;19971;-71
2021/03/25 09:03:33;;;;;;;;;;;13.80;58.40;;;;;;5053478;28;19970;-71
2021/03/25 09:06:17;;;;;;;;;;;13.40;59.30;;;;;;5054323;28;19967;-72
2021/03/25 09:08:44;;;;;;;;;;;13.40;59.30;;;;;;5054179;28;19912;-71
2021/03/25 09:11:13;;;;;;;;;;;13.50;59.70;;;;;;5053936;28;19917;-71
2021/03/25 09:13:44;;;;;;;;;;;13.50;59.50;;;;;;5054661;28;20016;-73
2021/03/25 09:16:20;;;;;;;;;;;13.50;59.70;;;;;;5055568;28;19951;-71
2021/03/25 09:18:48;;;;;;;;;;;13.40;59.80;;;;;;5036117;28;19916;-71
2021/03/25 09:21:15;;;;;;;;;;;13.40;60.00;;;;;;5054559;28;19948;-71
2021/03/25 09:24:01;;;;;;;;;;;13.40;60.20;;;;;;5053626;28;19912;-71
2021/03/25 09:26:27;;;;;;;;;;;13.30;59.80;;;;;;5036787;28;19912;-72
2021/03/25 09:28:58;;;;;;;;;;;13.20;59.30;;;;;;5054836;28;19978;-71
2021/03/25 09:31:28;;;;;;;;;;;13.30;59.80;;;;;;5054106;28;19909;-71
2021/03/25 09:33:58;;;;;;;;;;;13.40;59.40;;;;;;5053644;28;19908;-71
2021/03/25 09:36:34;;;;;;;;;;;13.40;58.90;;;;;;5054326;28;19916;-72
2021/03/25 09:39:00;;;;;;;;;;;13.50;59.00;;;;;;5053326;28;19984;-71
2021/03/25 09:41:30;;;;;;;;;;;13.40;58.90;;;;;;5055260;28;19915;-72
2021/03/25 09:44:05;;;;;;;;;;;13.40;58.80;;;;;;5053780;28;19916;-72
2021/03/25 09:46:49;;;;;;;;;;;13.40;59.00;;;;;;5054686;28;19916;-71
2021/03/25 09:49:19;;;;;;;;;;;13.40;58.90;;;;;;5052192;28;20007;-73
2021/03/25 09:51:48;;;;;;;;;;;13.20;59.10;;;;;;5053562;28;19951;-71
2021/03/25 09:54:22;;;;;;;;;;;13.20;59.80;;;;;;5052930;28;19912;-71
2021/03/25 09:57:08;;;;;;;;;;;13.10;59.50;;;;;;5052367;28;19908;-72
2021/03/25 09:59:45;;;;;;;;;;;13.20;59.30;;;;;;5054987;28;20323;-72
2021/03/25 10:02:11;;;;;;;;;;;13.20;59.40;;;;;;5055432;28;19923;-72
2021/03/25 10:04:39;;;;;;;;;;;13.00;60.00;;;;;;5055064;28;19915;-71
2021/03/25 10:07:12;;;;;;;;;;;13.10;60.00;;;;;;5054728;28;19916;-71
2021/03/25 10:09:47;;;;;;;;;;;13.10;59.40;;;;;;5052519;28;19909;-71
2021/03/25 10:12:14;;;;;;;;;;;13.10;60.40;;;;;;5034507;28;19946;-72
2021/03/25 10:14:47;;;;;;;;;;;13.00;60.40;;;;;;5053554;28;19955;-71
2021/03/25 10:17:32;;;;;;;;;;;13.20;60.00;;;;;;5052935;28;19966;-71
2021/03/25 10:19:58;;;;;;;;;;;13.20;60.30;;;;;;5054519;28;19952;-71
2021/03/25 10:22:24;;;;;;;;;;;13.30;60.00;;;;;;5053009;28;19912;-72
2021/03/25 10:24:55;;;;;;;;;;;13.30;61.70;;;;;;5053099;28;19938;-72
2021/03/25 10:27:24;;;;;;;;;;;13.30;61.00;;;;;;5052638;28;19938;-69
2021/03/25 10:29:50;;;;;;;;;;;13.20;61.50;;;;;;5053325;28;19913;-72
2021/03/25 10:32:25;;;;;;;;;;;13.20;62.00;;;;;;5053583;28;20230;-71
2021/03/25 10:34:57;;;;;;;;;;;13.10;62.20;;;;;;5036972;28;20340;-69
2021/03/25 10:37:32;;;;;;;;;;;13.30;61.80;;;;;;5052633;28;19924;-69
2021/03/25 10:40:16;;;;;;;;;;;13.40;61.60;;;;;;5052427;28;20246;-69
2021/03/25 10:42:44;;;;;;;;;;;13.20;62.20;;;;;;5052138;28;19932;-69
2021/03/25 10:45:17;;;;;;;;;;;13.10;63.00;;;;;;5053724;28;20250;-69
2021/03/25 10:48:03;;;;;;;;;;;13.20;63.00;;;;;;5053523;28;19917;-69
2021/03/25 10:50:45;;;;;;;;;;;13.30;62.40;;;;;;5052626;28;20004;-69
2021/03/25 10:53:14;;;;;;;;;;;13.40;63.10;;;;;;5051909;28;19984;-69
2021/03/25 10:55:42;;;;;;;;;;;13.50;62.40;;;;;;5053982;28;19912;-69
2021/03/25 10:58:18;;;;;;;;;;;13.30;63.30;;;;;;5052746;28;19909;-70
2021/03/25 11:00:44;;;;;;;;;;;13.20;63.10;;;;;;5051374;28;19916;-69
2021/03/25 11:03:31;;;;;;;;;;;13.40;62.90;;;;;;5052746;28;19909;-70
2021/03/25 11:05:59;;;;;;;;;;;13.30;63.00;;;;;;5053463;28;19912;-69
2021/03/25 11:08:32;;;;;;;;;;;13.30;62.60;;;;;;5054505;28;20292;-69
2021/03/25 11:10:59;;;;;;;;;;;13.10;62.40;;;;;;5052706;28;20261;-72
2021/03/25 11:13:26;;;;;;;;;;;13.30;63.70;;;;;;5054392;28;20331;-71
2021/03/25 11:15:57;;;;;;;;;;;13.00;63.20;;;;;;5053114;28;19912;-69
2021/03/25 11:18:37;;;;;;;;;;;13.10;64.00;;;;;;5053691;28;19912;-69
2021/03/25 11:21:05;;;;;;;;;;;13.20;63.30;;;;;;5052710;28;20356;-69
2021/03/25 11:23:31;;;;;;;;;;;13.40;64.00;;;;;;5053024;28;19974;-68
2021/03/25 11:25:58;;;;;;;;;;;13.30;62.90;;;;;;5055034;28;19908;-69
2021/03/25 11:28:26;;;;;;;;;;;13.20;63.20;;;;;;5055376;28;19951;-69
2021/03/25 11:31:12;;;;;;;;;;;13.30;63.50;;;;;;5057390;28;19916;-69
2021/03/25 11:33:38;;;;;;;;;;;13.10;63.10;;;;;;5055969;28;19912;-70
2021/03/25 11:36:06;;;;;;;;;;;13.20;63.30;;;;;;5056040;28;19913;-70
2021/03/25 11:38:40;;;;;;;;;;;13.20;63.80;;;;;;5058725;28;19918;-70
2021/03/25 11:41:17;;;;;;;;;;;13.20;64.40;;;;;;5058561;28;20343;-72
2021/03/25 11:43:49;;;;;;;;;;;13.10;64.30;;;;;;5059244;28;20273;-70
2021/03/25 11:46:48;;;;;;;;;;;13.30;64.10;;;;;;5056555;28;19919;-71
2021/03/25 11:49:15;;;;;;;;;;;13.20;64.40;;;;;;5027825;28;20354;-69
2021/03/25 11:52:01;;;;;;;;;;;13.40;64.70;;;;;;5056374;28;19947;-71
2021/03/25 11:54:31;;;;;;;;;;;13.20;63.90;;;;;;5056222;28;19909;-69
2021/03/25 11:57:23;;;;;;;;;;;13.30;63.80;;;;;;5054603;28;20022;-70
2021/03/25 11:59:50;;;;;;;;;;;13.30;64.20;;;;;;5056452;28;19939;-70
2021/03/25 12:02:21;;;;;;;;;;;13.10;63.20;;;;;;5037923;28;20349;-70
2021/03/25 12:04:51;;;;;;;;;;;13.00;64.70;;;;;;5054407;28;19920;-69
2021/03/25 12:07:20;;;;;;;;;;;13.10;64.80;;;;;;5055799;28;19909;-70
2021/03/25 12:10:12;;;;;;;;;;;13.10;64.50;;;;;;5054906;28;19909;-69
2021/03/25 12:12:38;;;;;;;;;;;13.10;64.40;;;;;;5050889;28;20344;-70
2021/03/25 12:15:04;;;;;;;;;;;12.90;65.00;;;;;;5055318;28;19951;-69
2021/03/25 12:17:30;;;;;;;;;;;13.10;65.40;;;;;;5056292;28;20384;-70
2021/03/25 12:19:56;;;;;;;;;;;13.30;64.30;;;;;;5056522;28;20341;-70
2021/03/25 12:22:25;;;;;;;;;;;13.30;63.50;;;;;;5056478;28;19920;-70
2021/03/25 12:24:51;;;;;;;;;;;13.10;63.60;;;;;;5054700;28;19923;-70
2021/03/25 12:27:19;;;;;;;;;;;13.10;64.60;;;;;;5056570;28;20007;-70
2021/03/25 12:29:45;;;;;;;;;;;13.20;64.50;;;;;;5055469;28;19912;-70
2021/03/25 12:32:15;;;;;;;;;;;13.10;64.20;;;;;;5056851;28;19963;-70
2021/03/25 12:34:41;;;;;;;;;;;13.10;64.30;;;;;;5054183;28;20227;-70
2021/03/25 12:37:09;;;;;;;;;;;13.20;63.20;;;;;;5054584;28;19916;-70
2021/03/25 12:39:35;;;;;;;;;;;13.30;63.50;;;;;;5056315;28;20516;-70
2021/03/25 12:42:02;;;;;;;;;;;13.10;63.60;;;;;;5055391;28;20263;-70
2021/03/25 12:44:29;;;;;;;;;;;13.10;63.00;;;;;;5057141;28;19952;-71
2021/03/25 12:46:55;;;;;;;;;;;13.00;63.50;;;;;;5037686;28;19909;-71
2021/03/25 12:49:21;;;;;;;;;;;12.90;63.60;;;;;;5055645;28;19919;-70
2021/03/25 12:51:47;;;;;;;;;;;12.80;65.00;;;;;;5053980;28;19916;-70
2021/03/25 12:54:13;;;;;;;;;;;13.10;63.30;;;;;;5037399;28;19913;-70
2021/03/25 12:56:39;;;;;;;;;;;12.90;63.60;;;;;;5054086;28;20270;-70
2021/03/25 12:59:09;;;;;;;;;;;13.10;63.20;;;;;;5055281;28;19999;-70
2021/03/25 13:01:35;;;;;;;;;;;13.20;62.70;;;;;;5053857;28;19970;-70
2021/03/25 13:04:01;;;;;;;;;;;13.20;63.40;;;;;;5054232;28;19917;-71
2021/03/25 13:06:27;;;;;;;;;;;13.20;62.30;;;;;;5055325;28;19913;-71
2021/03/25 13:08:54;;;;;;;;;;;12.80;63.00;;;;;;5054749;28;19919;-71
2021/03/25 13:11:22;;;;;;;;;;;12.70;62.90;;;;;;5055644;28;20251;-71
2021/03/25 13:13:48;;;;;;;;;;;12.70;63.50;;;;;;5055764;28;19920;-71
2021/03/25 13:16:14;;;;;;;;;;;12.80;63.00;;;;;;5055415;28;19912;-71
2021/03/25 13:18:40;;;;;;;;;;;12.70;63.50;;;;;;5052958;28;20241;-71
2021/03/25 13:21:07;;;;;;;;;;;12.70;63.80;;;;;;5055352;28;19912;-72
2021/03/25 13:23:33;;;;;;;;;;;12.60;63.50;;;;;;5038100;28;19913;-71
2021/03/25 13:26:01;;;;;;;;;;;12.60;63.70;;;;;;5056165;28;19974;-70
2021/03/25 13:28:27;;;;;;;;;;;12.80;63.90;;;;;;5053715;28;19920;-71
2021/03/25 13:30:54;;;;;;;;;;;12.80;63.50;;;;;;5058029;28;19913;-71
2021/03/25 13:33:20;;;;;;;;;;;12.80;63.10;;;;;;5057716;28;20015;-71
2021/03/25 13:35:47;;;;;;;;;;;12.70;64.00;;;;;;5046551;28;20254;-71
2021/03/25 13:38:13;;;;;;;;;;;12.90;63.20;;;;;;5055441;28;19920;-71
2021/03/25 13:40:40;;;;;;;;;;;12.90;62.90;;;;;;5052542;28;20007;-71
2021/03/25 13:43:07;;;;;;;;;;;13.00;62.80;;;;;;5054360;28;20325;-71
2021/03/25 13:45:33;;;;;;;;;;;12.80;63.00;;;;;;5054478;28;19923;-71
2021/03/25 13:47:59;;;;;;;;;;;12.70;64.00;;;;;;5054380;28;19919;-70
2021/03/25 13:50:28;;;;;;;;;;;12.80;64.00;;;;;;5052399;28;20058;-71
2021/03/25 13:52:54;;;;;;;;;;;12.80;63.90;;;;;;5054498;28;20311;-71
2021/03/25 13:55:22;;;;;;;;;;;12.60;64.70;;;;;;5035046;28;19936;-71
2021/03/25 13:57:48;;;;;;;;;;;12.60;64.20;;;;;;5053906;28;19995;-71
2021/03/25 14:00:15;;;;;;;;;;;12.60;64.80;;;;;;5053033;28;19917;-71
2021/03/25 14:02:41;;;;;;;;;;;12.60;64.90;;;;;;5052220;28;19913;-71
2021/03/25 14:05:07;;;;;;;;;;;12.80;64.10;;;;;;5054274;28;19912;-70
2021/03/25 14:07:33;;;;;;;;;;;12.70;63.40;;;;;;5051476;28;20011;-71
2021/03/25 14:09:59;;;;;;;;;;;12.80;63.90;;;;;;5052518;28;20057;-71
2021/03/25 14:12:25;;;;;;;;;;;12.70;63.20;;;;;;5036936;28;19913;-71
2021/03/25 14:14:51;;;;;;;;;;;12.70;63.80;;;;;;5053252;28;20377;-71
2021/03/25 14:17:17;;;;;;;;;;;12.70;63.80;;;;;;5053993;28;19970;-71
2021/03/25 14:19:43;;;;;;;;;;;12.80;63.20;;;;;;5052762;28;19913;-71
2021/03/25 14:22:09;;;;;;;;;;;12.80;62.60;;;;;;5036727;28;20219;-71
2021/03/25 14:24:38;;;;;;;;;;;12.80;62.70;;;;;;5053326;28;19917;-71
2021/03/25 14:27:05;;;;;;;;;;;12.70;63.00;;;;;;5035159;28;20020;-71
2021/03/25 14:29:31;;;;;;;;;;;12.60;63.00;;;;;;5052695;28;19913;-71
2021/03/25 14:31:57;;;;;;;;;;;12.90;62.30;;;;;;5052531;28;19995;-70
2021/03/25 14:34:23;;;;;;;;;;;12.80;62.10;;;;;;5035373;28;19909;-71
2021/03/25 14:36:49;;;;;;;;;;;12.60;62.70;;;;;;5053237;28;20223;-71